sensor_id;sensor_type;location;lat;lon;timestamp;P1;durP1;ratioP1;P2;durP2;ratioP2
3769;SDS011;1900;48.890;9.190;2023-11-22T00:01:06;4.27;;;2.97;;
3769;SDS011;1900;48.890;9.190;2023-11-22T00:03:32;7.20;;;3.00;;
3769;SDS011;1900;48.890;9.190;2023-11-22T00:05:58;4.50;;;3.00;;
3769;SDS011;1900;48.890;9.190;2023-11-22T00:08:24;4.30;;;3.50;;
3769;SDS011;1900;48.890;9.190;2023-11-22T00:10:49;6.20;;;3.70;;
3769;SDS011;1900;48.890;9.190;2023-11-22T00:13:15;5.23;;;3.47;;
3769;SDS011;1900;48.890;9.190;2023-11-22T00:15:41;4.30;;;3.50;;
3769;SDS011;1900;48.890;9.190;2023-11-22T00:18:06;5.10;;;3.50;;
3769;SDS011;1900;48.890;9.190;2023-11-22T00:20:32;3.83;;;3.10;;
3769;SDS011;1900;48.890;9.190;2023-11-22T00:22:59;4.37;;;3.97;;
3769;SDS011;1900;48.890;9.190;2023-11-22T00:25:24;4.83;;;3.60;;
3769;SDS011;1900;48.890;9.190;2023-11-22T00:27:50;3.90;;;3.50;;
3769;SDS011;1900;48.890;9.190;2023-11-22T00:30:16;5.23;;;3.70;;
3769;SDS011;1900;48.890;9.190;2023-11-22T00:32:41;6.60;;;3.60;;
3769;SDS011;1900;48.890;9.190;2023-11-22T00:35:07;4.97;;;3.77;;
3769;SDS011;1900;48.890;9.190;2023-11-22T00:37:35;5.50;;;3.63;;
3769;SDS011;1900;48.890;9.190;2023-11-22T00:40:01;4.73;;;4.00;;
3769;SDS011;1900;48.890;9.190;2023-11-22T00:42:36;5.80;;;3.47;;
3769;SDS011;1900;48.890;9.190;2023-11-22T00:45:04;7.87;;;4.60;;
3769;SDS011;1900;48.890;9.190;2023-11-22T00:47:32;4.43;;;3.60;;
3769;SDS011;1900;48.890;9.190;2023-11-22T00:49:58;4.50;;;3.80;;
3769;SDS011;1900;48.890;9.190;2023-11-22T00:52:24;5.77;;;4.33;;
3769;SDS011;1900;48.890;9.190;2023-11-22T00:54:50;7.53;;;4.57;;
3769;SDS011;1900;48.890;9.190;2023-11-22T00:57:16;6.10;;;4.50;;
3769;SDS011;1900;48.890;9.190;2023-11-22T00:59:42;6.63;;;4.50;;
3769;SDS011;1900;48.890;9.190;2023-11-22T01:02:08;4.10;;;3.50;;
3769;SDS011;1900;48.890;9.190;2023-11-22T01:04:34;5.73;;;4.03;;
3769;SDS011;1900;48.890;9.190;2023-11-22T01:07:02;4.77;;;3.50;;
3769;SDS011;1900;48.890;9.190;2023-11-22T01:09:31;5.77;;;3.97;;
3769;SDS011;1900;48.890;9.190;2023-11-22T01:12:00;5.37;;;3.70;;
3769;SDS011;1900;48.890;9.190;2023-11-22T01:14:26;5.20;;;3.90;;
3769;SDS011;1900;48.890;9.190;2023-11-22T01:16:53;3.70;;;3.10;;
3769;SDS011;1900;48.890;9.190;2023-11-22T01:19:21;5.33;;;3.43;;
3769;SDS011;1900;48.890;9.190;2023-11-22T01:21:47;6.67;;;4.33;;
3769;SDS011;1900;48.890;9.190;2023-11-22T01:24:13;6.10;;;4.13;;
3769;SDS011;1900;48.890;9.190;2023-11-22T01:26:39;4.70;;;3.90;;
3769;SDS011;1900;48.890;9.190;2023-11-22T01:29:05;6.73;;;4.17;;
3769;SDS011;1900;48.890;9.190;2023-11-22T01:31:31;5.00;;;3.87;;
3769;SDS011;1900;48.890;9.190;2023-11-22T01:33:57;5.53;;;3.83;;
3769;SDS011;1900;48.890;9.190;2023-11-22T01:36:24;4.30;;;3.73;;
3769;SDS011;1900;48.890;9.190;2023-11-22T01:38:51;5.07;;;3.73;;
3769;SDS011;1900;48.890;9.190;2023-11-22T01:41:17;6.27;;;3.53;;
3769;SDS011;1900;48.890;9.190;2023-11-22T01:43:43;4.80;;;3.40;;
3769;SDS011;1900;48.890;9.190;2023-11-22T01:46:17;7.57;;;3.37;;
3769;SDS011;1900;48.890;9.190;2023-11-22T01:48:48;3.57;;;3.20;;
3769;SDS011;1900;48.890;9.190;2023-11-22T01:51:15;4.57;;;4.13;;
3769;SDS011;1900;48.890;9.190;2023-11-22T01:53:41;4.80;;;3.40;;
3769;SDS011;1900;48.890;9.190;2023-11-22T01:56:07;5.30;;;3.97;;
3769;SDS011;1900;48.890;9.190;2023-11-22T01:58:34;5.90;;;2.83;;
3769;SDS011;1900;48.890;9.190;2023-11-22T02:01:00;4.20;;;3.50;;
3769;SDS011;1900;48.890;9.190;2023-11-22T02:03:27;3.40;;;3.10;;
3769;SDS011;1900;48.890;9.190;2023-11-22T02:05:54;5.00;;;4.10;;
3769;SDS011;1900;48.890;9.190;2023-11-22T02:08:19;4.10;;;3.37;;
3769;SDS011;1900;48.890;9.190;2023-11-22T02:10:45;3.30;;;3.00;;
3769;SDS011;1900;48.890;9.190;2023-11-22T02:13:14;4.30;;;3.63;;
3769;SDS011;1900;48.890;9.190;2023-11-22T02:15:40;5.93;;;3.67;;
3769;SDS011;1900;48.890;9.190;2023-11-22T02:18:05;5.20;;;3.80;;
3769;SDS011;1900;48.890;9.190;2023-11-22T02:20:31;4.97;;;4.20;;
3769;SDS011;1900;48.890;9.190;2023-11-22T02:23:01;4.37;;;3.87;;
3769;SDS011;1900;48.890;9.190;2023-11-22T02:25:37;4.40;;;3.60;;
3769;SDS011;1900;48.890;9.190;2023-11-22T02:28:03;5.33;;;3.67;;
3769;SDS011;1900;48.890;9.190;2023-11-22T02:30:28;10.20;;;4.10;;
3769;SDS011;1900;48.890;9.190;2023-11-22T02:32:54;7.00;;;4.13;;
3769;SDS011;1900;48.890;9.190;2023-11-22T02:35:20;7.90;;;3.40;;
3769;SDS011;1900;48.890;9.190;2023-11-22T02:37:46;6.37;;;4.47;;
3769;SDS011;1900;48.890;9.190;2023-11-22T02:42:48;7.90;;;4.37;;
3769;SDS011;1900;48.890;9.190;2023-11-22T02:45:16;5.23;;;4.10;;
3769;SDS011;1900;48.890;9.190;2023-11-22T02:47:48;6.03;;;4.17;;
3769;SDS011;1900;48.890;9.190;2023-11-22T02:50:15;6.90;;;4.67;;
3769;SDS011;1900;48.890;9.190;2023-11-22T02:52:41;4.77;;;3.90;;
3769;SDS011;1900;48.890;9.190;2023-11-22T02:55:08;5.27;;;4.20;;
3769;SDS011;1900;48.890;9.190;2023-11-22T02:57:37;4.47;;;3.73;;
3769;SDS011;1900;48.890;9.190;2023-11-22T03:00:07;6.10;;;3.73;;
3769;SDS011;1900;48.890;9.190;2023-11-22T03:02:38;4.80;;;4.30;;
3769;SDS011;1900;48.890;9.190;2023-11-22T03:05:07;7.20;;;4.10;;
3769;SDS011;1900;48.890;9.190;2023-11-22T03:07:34;4.47;;;4.03;;
3769;SDS011;1900;48.890;9.190;2023-11-22T03:10:01;5.63;;;4.00;;
3769;SDS011;1900;48.890;9.190;2023-11-22T03:12:28;7.67;;;4.37;;
3769;SDS011;1900;48.890;9.190;2023-11-22T03:14:54;5.27;;;3.93;;
3769;SDS011;1900;48.890;9.190;2023-11-22T03:17:28;7.13;;;4.70;;
3769;SDS011;1900;48.890;9.190;2023-11-22T03:20:13;5.10;;;4.23;;
3769;SDS011;1900;48.890;9.190;2023-11-22T03:22:40;6.90;;;4.80;;
3769;SDS011;1900;48.890;9.190;2023-11-22T03:25:09;5.63;;;4.17;;
3769;SDS011;1900;48.890;9.190;2023-11-22T03:27:36;10.47;;;4.60;;
3769;SDS011;1900;48.890;9.190;2023-11-22T03:30:03;5.87;;;4.40;;
3769;SDS011;1900;48.890;9.190;2023-11-22T03:32:29;6.23;;;4.50;;
3769;SDS011;1900;48.890;9.190;2023-11-22T03:34:55;4.43;;;4.00;;
3769;SDS011;1900;48.890;9.190;2023-11-22T03:37:22;6.40;;;4.30;;
3769;SDS011;1900;48.890;9.190;2023-11-22T03:39:49;5.07;;;4.30;;
3769;SDS011;1900;48.890;9.190;2023-11-22T03:42:15;6.83;;;4.50;;
3769;SDS011;1900;48.890;9.190;2023-11-22T03:44:44;6.77;;;4.20;;
3769;SDS011;1900;48.890;9.190;2023-11-22T03:47:10;6.73;;;4.17;;
3769;SDS011;1900;48.890;9.190;2023-11-22T03:49:37;5.50;;;4.20;;
3769;SDS011;1900;48.890;9.190;2023-11-22T03:52:03;6.60;;;4.20;;
3769;SDS011;1900;48.890;9.190;2023-11-22T03:54:29;6.87;;;4.23;;
3769;SDS011;1900;48.890;9.190;2023-11-22T03:56:55;6.37;;;4.43;;
3769;SDS011;1900;48.890;9.190;2023-11-22T03:59:21;5.83;;;4.20;;
3769;SDS011;1900;48.890;9.190;2023-11-22T04:01:47;10.93;;;3.97;;
3769;SDS011;1900;48.890;9.190;2023-11-22T04:04:12;5.07;;;4.30;;
3769;SDS011;1900;48.890;9.190;2023-11-22T04:06:38;4.23;;;3.33;;
3769;SDS011;1900;48.890;9.190;2023-11-22T04:09:23;4.70;;;3.47;;
3769;SDS011;1900;48.890;9.190;2023-11-22T04:11:49;4.00;;;3.60;;
3769;SDS011;1900;48.890;9.190;2023-11-22T04:14:15;4.60;;;3.57;;
3769;SDS011;1900;48.890;9.190;2023-11-22T04:16:40;4.37;;;3.83;;
3769;SDS011;1900;48.890;9.190;2023-11-22T04:19:06;5.10;;;4.17;;
3769;SDS011;1900;48.890;9.190;2023-11-22T04:21:32;4.47;;;3.70;;
3769;SDS011;1900;48.890;9.190;2023-11-22T04:23:57;4.83;;;3.67;;
3769;SDS011;1900;48.890;9.190;2023-11-22T04:26:23;3.43;;;3.10;;
3769;SDS011;1900;48.890;9.190;2023-11-22T04:28:50;4.67;;;3.07;;
3769;SDS011;1900;48.890;9.190;2023-11-22T04:31:15;5.47;;;3.67;;
3769;SDS011;1900;48.890;9.190;2023-11-22T04:33:41;4.40;;;3.40;;
3769;SDS011;1900;48.890;9.190;2023-11-22T04:36:07;5.63;;;3.80;;
3769;SDS011;1900;48.890;9.190;2023-11-22T04:38:33;5.63;;;3.70;;
3769;SDS011;1900;48.890;9.190;2023-11-22T04:40:59;5.57;;;3.83;;
3769;SDS011;1900;48.890;9.190;2023-11-22T04:43:25;5.47;;;4.40;;
3769;SDS011;1900;48.890;9.190;2023-11-22T04:45:51;4.60;;;3.80;;
3769;SDS011;1900;48.890;9.190;2023-11-22T04:48:17;5.57;;;3.30;;
3769;SDS011;1900;48.890;9.190;2023-11-22T04:50:43;8.33;;;4.20;;
3769;SDS011;1900;48.890;9.190;2023-11-22T04:53:10;5.57;;;3.73;;
3769;SDS011;1900;48.890;9.190;2023-11-22T04:55:35;7.57;;;3.50;;
3769;SDS011;1900;48.890;9.190;2023-11-22T04:58:01;5.13;;;4.10;;
3769;SDS011;1900;48.890;9.190;2023-11-22T05:00:28;6.57;;;4.60;;
3769;SDS011;1900;48.890;9.190;2023-11-22T05:02:54;4.03;;;3.63;;
3769;SDS011;1900;48.890;9.190;2023-11-22T05:05:20;4.70;;;4.13;;
3769;SDS011;1900;48.890;9.190;2023-11-22T05:07:46;4.40;;;3.50;;
3769;SDS011;1900;48.890;9.190;2023-11-22T05:10:12;6.30;;;4.57;;
3769;SDS011;1900;48.890;9.190;2023-11-22T05:12:39;5.00;;;3.53;;
3769;SDS011;1900;48.890;9.190;2023-11-22T05:15:08;6.50;;;3.77;;
3769;SDS011;1900;48.890;9.190;2023-11-22T05:17:34;5.03;;;3.77;;
3769;SDS011;1900;48.890;9.190;2023-11-22T05:20:00;4.97;;;3.80;;
3769;SDS011;1900;48.890;9.190;2023-11-22T05:22:26;4.03;;;3.23;;
3769;SDS011;1900;48.890;9.190;2023-11-22T05:24:52;5.93;;;3.70;;
3769;SDS011;1900;48.890;9.190;2023-11-22T05:27:18;4.40;;;3.43;;
3769;SDS011;1900;48.890;9.190;2023-11-22T05:29:43;3.50;;;3.00;;
3769;SDS011;1900;48.890;9.190;2023-11-22T05:32:09;3.70;;;3.27;;
3769;SDS011;1900;48.890;9.190;2023-11-22T05:34:36;3.80;;;3.17;;
3769;SDS011;1900;48.890;9.190;2023-11-22T05:37:02;4.63;;;3.20;;
3769;SDS011;1900;48.890;9.190;2023-11-22T05:39:30;3.70;;;3.10;;
3769;SDS011;1900;48.890;9.190;2023-11-22T05:41:56;4.73;;;3.70;;
3769;SDS011;1900;48.890;9.190;2023-11-22T05:44:21;7.10;;;4.40;;
3769;SDS011;1900;48.890;9.190;2023-11-22T05:46:48;4.80;;;3.80;;
3769;SDS011;1900;48.890;9.190;2023-11-22T05:49:13;4.40;;;3.17;;
3769;SDS011;1900;48.890;9.190;2023-11-22T05:51:39;4.37;;;3.50;;
3769;SDS011;1900;48.890;9.190;2023-11-22T05:54:06;4.27;;;3.40;;
3769;SDS011;1900;48.890;9.190;2023-11-22T05:56:32;6.13;;;3.57;;
3769;SDS011;1900;48.890;9.190;2023-11-22T05:58:58;3.70;;;3.30;;
3769;SDS011;1900;48.890;9.190;2023-11-22T06:01:25;5.93;;;4.17;;
3769;SDS011;1900;48.890;9.190;2023-11-22T06:03:51;4.30;;;3.50;;
3769;SDS011;1900;48.890;9.190;2023-11-22T06:06:18;4.83;;;3.47;;
3769;SDS011;1900;48.890;9.190;2023-11-22T06:08:46;6.00;;;3.47;;
3769;SDS011;1900;48.890;9.190;2023-11-22T06:11:12;3.93;;;3.30;;
3769;SDS011;1900;48.890;9.190;2023-11-22T06:13:40;6.57;;;3.77;;
3769;SDS011;1900;48.890;9.190;2023-11-22T06:16:08;3.47;;;3.17;;
3769;SDS011;1900;48.890;9.190;2023-11-22T06:18:34;6.60;;;3.20;;
3769;SDS011;1900;48.890;9.190;2023-11-22T06:21:08;3.40;;;3.10;;
3769;SDS011;1900;48.890;9.190;2023-11-22T06:23:35;3.80;;;3.27;;
3769;SDS011;1900;48.890;9.190;2023-11-22T06:26:01;6.70;;;4.17;;
3769;SDS011;1900;48.890;9.190;2023-11-22T06:28:27;6.30;;;3.60;;
3769;SDS011;1900;48.890;9.190;2023-11-22T06:30:54;6.73;;;3.93;;
3769;SDS011;1900;48.890;9.190;2023-11-22T06:33:20;4.60;;;3.80;;
3769;SDS011;1900;48.890;9.190;2023-11-22T06:35:45;6.67;;;3.50;;
3769;SDS011;1900;48.890;9.190;2023-11-22T06:38:11;4.17;;;3.10;;
3769;SDS011;1900;48.890;9.190;2023-11-22T06:40:37;7.27;;;3.20;;
3769;SDS011;1900;48.890;9.190;2023-11-22T06:43:03;5.50;;;3.47;;
3769;SDS011;1900;48.890;9.190;2023-11-22T06:45:29;6.03;;;3.40;;
3769;SDS011;1900;48.890;9.190;2023-11-22T06:47:56;6.13;;;3.53;;
3769;SDS011;1900;48.890;9.190;2023-11-22T06:50:23;3.77;;;3.10;;
3769;SDS011;1900;48.890;9.190;2023-11-22T06:52:49;5.37;;;3.50;;
3769;SDS011;1900;48.890;9.190;2023-11-22T06:55:15;3.60;;;3.30;;
3769;SDS011;1900;48.890;9.190;2023-11-22T06:57:41;4.60;;;2.90;;
3769;SDS011;1900;48.890;9.190;2023-11-22T07:00:07;7.93;;;3.53;;
3769;SDS011;1900;48.890;9.190;2023-11-22T07:02:34;3.60;;;2.90;;
3769;SDS011;1900;48.890;9.190;2023-11-22T07:05:01;8.67;;;3.20;;
3769;SDS011;1900;48.890;9.190;2023-11-22T07:07:37;5.43;;;3.13;;
3769;SDS011;1900;48.890;9.190;2023-11-22T07:10:04;5.77;;;3.27;;
3769;SDS011;1900;48.890;9.190;2023-11-22T07:12:33;3.80;;;3.10;;
3769;SDS011;1900;48.890;9.190;2023-11-22T07:15:02;4.93;;;3.73;;
3769;SDS011;1900;48.890;9.190;2023-11-22T07:17:28;3.20;;;2.83;;
3769;SDS011;1900;48.890;9.190;2023-11-22T07:19:54;5.10;;;3.60;;
3769;SDS011;1900;48.890;9.190;2023-11-22T07:22:20;5.13;;;3.57;;
3769;SDS011;1900;48.890;9.190;2023-11-22T07:24:49;4.60;;;3.27;;
3769;SDS011;1900;48.890;9.190;2023-11-22T07:27:19;6.63;;;3.10;;
3769;SDS011;1900;48.890;9.190;2023-11-22T07:29:46;6.90;;;4.27;;
3769;SDS011;1900;48.890;9.190;2023-11-22T07:32:12;8.73;;;3.33;;
3769;SDS011;1900;48.890;9.190;2023-11-22T07:34:39;4.57;;;3.43;;
3769;SDS011;1900;48.890;9.190;2023-11-22T07:37:06;3.63;;;3.17;;
3769;SDS011;1900;48.890;9.190;2023-11-22T07:39:33;4.33;;;3.27;;
3769;SDS011;1900;48.890;9.190;2023-11-22T07:42:00;4.13;;;3.17;;
3769;SDS011;1900;48.890;9.190;2023-11-22T07:44:27;4.50;;;3.30;;
3769;SDS011;1900;48.890;9.190;2023-11-22T07:46:52;6.40;;;3.70;;
3769;SDS011;1900;48.890;9.190;2023-11-22T07:49:21;10.10;;;3.60;;
3769;SDS011;1900;48.890;9.190;2023-11-22T07:51:47;5.83;;;3.87;;
3769;SDS011;1900;48.890;9.190;2023-11-22T07:54:17;5.63;;;4.10;;
3769;SDS011;1900;48.890;9.190;2023-11-22T07:56:51;5.90;;;3.57;;
3769;SDS011;1900;48.890;9.190;2023-11-22T07:59:19;4.50;;;3.17;;
3769;SDS011;1900;48.890;9.190;2023-11-22T08:01:45;6.10;;;3.53;;
3769;SDS011;1900;48.890;9.190;2023-11-22T08:04:13;3.73;;;3.37;;
3769;SDS011;1900;48.890;9.190;2023-11-22T08:06:39;4.47;;;3.43;;
3769;SDS011;1900;48.890;9.190;2023-11-22T08:09:04;8.00;;;4.90;;
3769;SDS011;1900;48.890;9.190;2023-11-22T08:11:30;11.67;;;7.17;;
3769;SDS011;1900;48.890;9.190;2023-11-22T08:13:59;4.97;;;3.60;;
3769;SDS011;1900;48.890;9.190;2023-11-22T08:16:25;8.27;;;3.60;;
3769;SDS011;1900;48.890;9.190;2023-11-22T08:18:52;6.33;;;3.73;;
3769;SDS011;1900;48.890;9.190;2023-11-22T08:21:17;13.00;;;4.00;;
3769;SDS011;1900;48.890;9.190;2023-11-22T08:23:43;4.47;;;4.07;;
3769;SDS011;1900;48.890;9.190;2023-11-22T08:26:12;6.80;;;4.03;;
3769;SDS011;1900;48.890;9.190;2023-11-22T08:28:39;7.60;;;4.50;;
3769;SDS011;1900;48.890;9.190;2023-11-22T08:31:05;5.57;;;4.50;;
3769;SDS011;1900;48.890;9.190;2023-11-22T08:33:34;11.37;;;5.77;;
3769;SDS011;1900;48.890;9.190;2023-11-22T08:36:01;7.57;;;4.50;;
3769;SDS011;1900;48.890;9.190;2023-11-22T08:38:29;5.57;;;4.57;;
3769;SDS011;1900;48.890;9.190;2023-11-22T08:41:04;7.30;;;4.30;;
3769;SDS011;1900;48.890;9.190;2023-11-22T08:43:37;8.73;;;4.33;;
3769;SDS011;1900;48.890;9.190;2023-11-22T08:46:03;6.10;;;4.70;;
3769;SDS011;1900;48.890;9.190;2023-11-22T08:48:32;7.67;;;5.30;;
3769;SDS011;1900;48.890;9.190;2023-11-22T08:50:58;6.23;;;4.13;;
3769;SDS011;1900;48.890;9.190;2023-11-22T08:53:23;8.40;;;4.53;;
3769;SDS011;1900;48.890;9.190;2023-11-22T08:55:49;10.73;;;5.30;;
3769;SDS011;1900;48.890;9.190;2023-11-22T08:58:15;7.00;;;4.70;;
3769;SDS011;1900;48.890;9.190;2023-11-22T09:00:41;6.93;;;4.17;;
3769;SDS011;1900;48.890;9.190;2023-11-22T09:03:11;9.07;;;5.33;;
3769;SDS011;1900;48.890;9.190;2023-11-22T09:05:40;10.70;;;4.37;;
3769;SDS011;1900;48.890;9.190;2023-11-22T09:08:08;6.60;;;4.60;;
3769;SDS011;1900;48.890;9.190;2023-11-22T09:10:38;5.80;;;4.73;;
3769;SDS011;1900;48.890;9.190;2023-11-22T09:13:05;7.93;;;4.50;;
3769;SDS011;1900;48.890;9.190;2023-11-22T09:15:31;5.80;;;4.03;;
3769;SDS011;1900;48.890;9.190;2023-11-22T09:17:59;7.27;;;5.40;;
3769;SDS011;1900;48.890;9.190;2023-11-22T09:20:24;6.60;;;4.80;;
3769;SDS011;1900;48.890;9.190;2023-11-22T09:22:52;6.07;;;4.17;;
3769;SDS011;1900;48.890;9.190;2023-11-22T09:25:20;6.47;;;4.27;;
3769;SDS011;1900;48.890;9.190;2023-11-22T09:27:49;10.40;;;5.40;;
3769;SDS011;1900;48.890;9.190;2023-11-22T09:30:31;6.60;;;4.13;;
3769;SDS011;1900;48.890;9.190;2023-11-22T09:33:13;8.17;;;4.30;;
3769;SDS011;1900;48.890;9.190;2023-11-22T09:35:41;5.47;;;4.13;;
3769;SDS011;1900;48.890;9.190;2023-11-22T09:38:09;7.93;;;4.50;;
3769;SDS011;1900;48.890;9.190;2023-11-22T09:43:10;6.90;;;4.13;;
3769;SDS011;1900;48.890;9.190;2023-11-22T09:45:37;6.70;;;4.63;;
3769;SDS011;1900;48.890;9.190;2023-11-22T09:48:24;10.10;;;4.87;;
3769;SDS011;1900;48.890;9.190;2023-11-22T09:53:34;8.67;;;4.80;;
3769;SDS011;1900;48.890;9.190;2023-11-22T09:56:10;7.33;;;4.47;;
3769;SDS011;1900;48.890;9.190;2023-11-22T09:58:40;6.40;;;4.50;;
3769;SDS011;1900;48.890;9.190;2023-11-22T10:01:13;5.77;;;4.33;;
3769;SDS011;1900;48.890;9.190;2023-11-22T10:03:39;10.27;;;5.07;;
3769;SDS011;1900;48.890;9.190;2023-11-22T10:06:05;8.53;;;4.63;;
3769;SDS011;1900;48.890;9.190;2023-11-22T10:08:32;7.30;;;4.27;;
3769;SDS011;1900;48.890;9.190;2023-11-22T10:10:58;6.40;;;4.90;;
3769;SDS011;1900;48.890;9.190;2023-11-22T10:13:24;5.93;;;4.10;;
3769;SDS011;1900;48.890;9.190;2023-11-22T10:15:51;7.20;;;4.47;;
3769;SDS011;1900;48.890;9.190;2023-11-22T10:18:18;8.73;;;4.53;;
3769;SDS011;1900;48.890;9.190;2023-11-22T10:20:45;9.17;;;4.60;;
3769;SDS011;1900;48.890;9.190;2023-11-22T10:23:12;6.40;;;5.20;;
3769;SDS011;1900;48.890;9.190;2023-11-22T10:25:43;6.00;;;4.53;;
3769;SDS011;1900;48.890;9.190;2023-11-22T10:28:09;6.00;;;4.30;;
3769;SDS011;1900;48.890;9.190;2023-11-22T10:30:35;8.93;;;5.27;;
3769;SDS011;1900;48.890;9.190;2023-11-22T10:33:02;8.00;;;5.10;;
3769;SDS011;1900;48.890;9.190;2023-11-22T10:35:28;6.77;;;4.50;;
3769;SDS011;1900;48.890;9.190;2023-11-22T10:37:54;8.80;;;5.23;;
3769;SDS011;1900;48.890;9.190;2023-11-22T10:40:20;6.00;;;4.37;;
3769;SDS011;1900;48.890;9.190;2023-11-22T10:42:46;8.23;;;4.90;;
3769;SDS011;1900;48.890;9.190;2023-11-22T10:45:17;9.70;;;5.20;;
3769;SDS011;1900;48.890;9.190;2023-11-22T10:47:47;6.77;;;5.43;;
3769;SDS011;1900;48.890;9.190;2023-11-22T10:50:14;9.13;;;4.63;;
3769;SDS011;1900;48.890;9.190;2023-11-22T10:52:41;7.47;;;5.07;;
3769;SDS011;1900;48.890;9.190;2023-11-22T10:55:11;7.90;;;5.17;;
3769;SDS011;1900;48.890;9.190;2023-11-22T10:57:45;5.73;;;4.60;;
3769;SDS011;1900;48.890;9.190;2023-11-22T11:00:15;7.87;;;4.73;;
3769;SDS011;1900;48.890;9.190;2023-11-22T11:02:47;7.50;;;5.80;;
3769;SDS011;1900;48.890;9.190;2023-11-22T11:05:30;16.63;;;10.37;;
3769;SDS011;1900;48.890;9.190;2023-11-22T11:07:59;12.13;;;6.93;;
3769;SDS011;1900;48.890;9.190;2023-11-22T11:10:41;8.10;;;6.53;;
3769;SDS011;1900;48.890;9.190;2023-11-22T11:13:08;5.90;;;4.53;;
3769;SDS011;1900;48.890;9.190;2023-11-22T11:15:34;8.57;;;5.37;;
3769;SDS011;1900;48.890;9.190;2023-11-22T11:18:01;6.87;;;4.70;;
3769;SDS011;1900;48.890;9.190;2023-11-22T11:20:32;6.53;;;5.27;;
3769;SDS011;1900;48.890;9.190;2023-11-22T11:23:01;6.80;;;4.97;;
3769;SDS011;1900;48.890;9.190;2023-11-22T11:25:30;8.77;;;5.80;;
3769;SDS011;1900;48.890;9.190;2023-11-22T11:27:58;6.97;;;4.53;;
3769;SDS011;1900;48.890;9.190;2023-11-22T11:30:40;6.70;;;5.40;;
3769;SDS011;1900;48.890;9.190;2023-11-22T11:33:11;8.43;;;4.90;;
3769;SDS011;1900;48.890;9.190;2023-11-22T11:35:48;5.80;;;4.67;;
3769;SDS011;1900;48.890;9.190;2023-11-22T11:38:15;9.10;;;5.40;;
3769;SDS011;1900;48.890;9.190;2023-11-22T11:40:47;9.07;;;5.47;;
3769;SDS011;1900;48.890;9.190;2023-11-22T11:43:14;6.80;;;4.47;;
3769;SDS011;1900;48.890;9.190;2023-11-22T11:45:41;6.77;;;4.67;;
3769;SDS011;1900;48.890;9.190;2023-11-22T11:48:15;5.70;;;4.80;;
3769;SDS011;1900;48.890;9.190;2023-11-22T11:50:42;10.47;;;5.90;;
3769;SDS011;1900;48.890;9.190;2023-11-22T11:53:11;7.17;;;5.67;;
3769;SDS011;1900;48.890;9.190;2023-11-22T11:55:37;7.90;;;5.73;;
3769;SDS011;1900;48.890;9.190;2023-11-22T11:58:06;9.70;;;4.80;;
3769;SDS011;1900;48.890;9.190;2023-11-22T12:00:37;7.97;;;5.40;;
3769;SDS011;1900;48.890;9.190;2023-11-22T12:03:06;10.00;;;6.03;;
3769;SDS011;1900;48.890;9.190;2023-11-22T12:05:35;8.43;;;5.53;;
3769;SDS011;1900;48.890;9.190;2023-11-22T12:08:01;10.40;;;5.00;;
3769;SDS011;1900;48.890;9.190;2023-11-22T12:10:28;7.60;;;5.30;;
3769;SDS011;1900;48.890;9.190;2023-11-22T12:12:54;8.07;;;5.43;;
3769;SDS011;1900;48.890;9.190;2023-11-22T12:15:19;9.23;;;4.90;;
3769;SDS011;1900;48.890;9.190;2023-11-22T12:17:48;8.03;;;5.83;;
3769;SDS011;1900;48.890;9.190;2023-11-22T12:20:16;12.67;;;5.90;;
3769;SDS011;1900;48.890;9.190;2023-11-22T12:22:46;7.53;;;5.40;;
3769;SDS011;1900;48.890;9.190;2023-11-22T12:25:12;8.97;;;5.40;;
3769;SDS011;1900;48.890;9.190;2023-11-22T12:27:41;7.13;;;5.67;;
3769;SDS011;1900;48.890;9.190;2023-11-22T12:30:07;8.40;;;5.03;;
3769;SDS011;1900;48.890;9.190;2023-11-22T12:32:39;8.87;;;5.53;;
3769;SDS011;1900;48.890;9.190;2023-11-22T12:35:06;10.13;;;6.80;;
3769;SDS011;1900;48.890;9.190;2023-11-22T12:37:33;15.00;;;8.00;;
3769;SDS011;1900;48.890;9.190;2023-11-22T12:40:06;9.50;;;7.03;;
3769;SDS011;1900;48.890;9.190;2023-11-22T12:42:45;10.27;;;7.37;;
3769;SDS011;1900;48.890;9.190;2023-11-22T12:45:21;13.60;;;8.00;;
3769;SDS011;1900;48.890;9.190;2023-11-22T12:47:49;8.53;;;5.50;;
3769;SDS011;1900;48.890;9.190;2023-11-22T12:53:12;7.83;;;5.63;;
3769;SDS011;1900;48.890;9.190;2023-11-22T12:55:46;9.77;;;5.60;;
3769;SDS011;1900;48.890;9.190;2023-11-22T12:58:15;9.03;;;5.73;;
3769;SDS011;1900;48.890;9.190;2023-11-22T13:00:43;7.97;;;6.10;;
3769;SDS011;1900;48.890;9.190;2023-11-22T13:03:10;11.47;;;5.60;;
3769;SDS011;1900;48.890;9.190;2023-11-22T13:05:37;8.47;;;5.40;;
3769;SDS011;1900;48.890;9.190;2023-11-22T13:08:12;14.63;;;6.43;;
3769;SDS011;1900;48.890;9.190;2023-11-22T13:10:48;7.20;;;5.70;;
3769;SDS011;1900;48.890;9.190;2023-11-22T13:13:22;7.57;;;5.97;;
3769;SDS011;1900;48.890;9.190;2023-11-22T13:15:49;14.23;;;5.60;;
3769;SDS011;1900;48.890;9.190;2023-11-22T13:18:15;9.27;;;5.90;;
3769;SDS011;1900;48.890;9.190;2023-11-22T13:20:42;8.83;;;5.37;;
3769;SDS011;1900;48.890;9.190;2023-11-22T13:23:08;9.03;;;5.60;;
3769;SDS011;1900;48.890;9.190;2023-11-22T13:25:35;8.67;;;5.67;;
3769;SDS011;1900;48.890;9.190;2023-11-22T13:28:00;10.80;;;5.53;;
3769;SDS011;1900;48.890;9.190;2023-11-22T13:30:27;8.40;;;6.10;;
3769;SDS011;1900;48.890;9.190;2023-11-22T13:32:54;7.23;;;5.47;;
3769;SDS011;1900;48.890;9.190;2023-11-22T13:35:26;7.33;;;5.03;;
3769;SDS011;1900;48.890;9.190;2023-11-22T13:37:56;7.83;;;6.30;;
3769;SDS011;1900;48.890;9.190;2023-11-22T13:40:23;11.27;;;6.13;;
3769;SDS011;1900;48.890;9.190;2023-11-22T13:42:51;8.17;;;5.20;;
3769;SDS011;1900;48.890;9.190;2023-11-22T13:45:19;8.80;;;6.10;;
3769;SDS011;1900;48.890;9.190;2023-11-22T13:50:18;8.40;;;5.57;;
3769;SDS011;1900;48.890;9.190;2023-11-22T13:52:50;8.40;;;5.77;;
3769;SDS011;1900;48.890;9.190;2023-11-22T13:55:17;10.70;;;5.20;;
3769;SDS011;1900;48.890;9.190;2023-11-22T13:57:48;7.50;;;5.80;;
3769;SDS011;1900;48.890;9.190;2023-11-22T14:00:14;12.27;;;5.87;;
3769;SDS011;1900;48.890;9.190;2023-11-22T14:02:52;10.70;;;6.57;;
3769;SDS011;1900;48.890;9.190;2023-11-22T14:05:21;9.00;;;6.77;;
3769;SDS011;1900;48.890;9.190;2023-11-22T14:07:47;9.47;;;5.90;;
3769;SDS011;1900;48.890;9.190;2023-11-22T14:10:14;12.30;;;6.53;;
3769;SDS011;1900;48.890;9.190;2023-11-22T14:12:43;9.30;;;5.40;;
3769;SDS011;1900;48.890;9.190;2023-11-22T14:15:10;16.73;;;6.30;;
3769;SDS011;1900;48.890;9.190;2023-11-22T14:17:37;8.73;;;5.87;;
3769;SDS011;1900;48.890;9.190;2023-11-22T14:22:34;8.73;;;6.20;;
3769;SDS011;1900;48.890;9.190;2023-11-22T14:25:01;9.77;;;5.97;;
3769;SDS011;1900;48.890;9.190;2023-11-22T14:27:27;10.33;;;6.20;;
3769;SDS011;1900;48.890;9.190;2023-11-22T14:29:56;9.17;;;6.20;;
3769;SDS011;1900;48.890;9.190;2023-11-22T14:32:22;8.90;;;6.00;;
3769;SDS011;1900;48.890;9.190;2023-11-22T14:34:48;7.23;;;5.97;;
3769;SDS011;1900;48.890;9.190;2023-11-22T14:37:14;6.83;;;5.17;;
3769;SDS011;1900;48.890;9.190;2023-11-22T14:39:40;12.17;;;6.67;;
3769;SDS011;1900;48.890;9.190;2023-11-22T14:42:07;10.57;;;5.47;;
3769;SDS011;1900;48.890;9.190;2023-11-22T14:44:36;10.27;;;6.17;;
3769;SDS011;1900;48.890;9.190;2023-11-22T14:47:02;9.43;;;5.63;;
3769;SDS011;1900;48.890;9.190;2023-11-22T14:49:39;7.53;;;5.40;;
3769;SDS011;1900;48.890;9.190;2023-11-22T14:52:04;7.67;;;5.87;;
3769;SDS011;1900;48.890;9.190;2023-11-22T14:54:30;14.13;;;6.17;;
3769;SDS011;1900;48.890;9.190;2023-11-22T14:56:56;10.10;;;6.20;;
3769;SDS011;1900;48.890;9.190;2023-11-22T14:59:27;9.67;;;5.97;;
3769;SDS011;1900;48.890;9.190;2023-11-22T15:01:55;9.97;;;5.83;;
3769;SDS011;1900;48.890;9.190;2023-11-22T15:04:22;25.33;;;13.87;;
3769;SDS011;1900;48.890;9.190;2023-11-22T15:06:49;11.73;;;7.87;;
3769;SDS011;1900;48.890;9.190;2023-11-22T15:09:15;10.27;;;7.30;;
3769;SDS011;1900;48.890;9.190;2023-11-22T15:11:41;7.70;;;5.73;;
3769;SDS011;1900;48.890;9.190;2023-11-22T15:14:08;7.20;;;5.10;;
3769;SDS011;1900;48.890;9.190;2023-11-22T15:16:34;8.37;;;5.70;;
3769;SDS011;1900;48.890;9.190;2023-11-22T15:19:01;9.60;;;5.63;;
3769;SDS011;1900;48.890;9.190;2023-11-22T15:21:28;10.60;;;6.13;;
3769;SDS011;1900;48.890;9.190;2023-11-22T15:23:54;8.43;;;5.87;;
3769;SDS011;1900;48.890;9.190;2023-11-22T15:26:24;9.13;;;6.77;;
3769;SDS011;1900;48.890;9.190;2023-11-22T15:28:50;10.80;;;5.90;;
3769;SDS011;1900;48.890;9.190;2023-11-22T15:31:19;9.57;;;5.83;;